Applegate, California
Current Conditions -  °F | °C
As of 7:15 PM on Monday 20 Oct 2014 (Local Time) from KAUN Reporting Station
Overcast Overcast  
Wind Chill: 57°   Ceiling: 4300
Heat Index: 57°   Visibility: 9mi
Dew Point: 55°   Wind: 6mph
Humidity: 94%   Direction: 180°S
Pressure: 29.96"   Gusts: NA
Location:  39°N, 120.99°W
Report Text: KAUN 210215Z AUTO 18005KT 9SM FEW001 SCT036 OVC043 14/13 A2996 RMK AO1
Loading
Personal Weather Stations






























Interactive Weather Map New forecast layout! Learn more

10-Day Weather Forecast

Advertisements
Track Severe Weather on mobile